sensor_id;sensor_type;location;lat;lon;timestamp;P1;durP1;ratioP1;P2;durP2;ratioP2
76336;SDS011;65157;50.082;18.178;2024-01-11T00:01:59;235.20;;;65.90;;
76336;SDS011;65157;50.082;18.178;2024-01-11T00:04:25;248.00;;;71.00;;
76336;SDS011;65157;50.082;18.178;2024-01-11T00:06:52;216.10;;;67.70;;
76336;SDS011;65157;50.082;18.178;2024-01-11T00:09:19;240.10;;;69.80;;
76336;SDS011;65157;50.082;18.178;2024-01-11T00:11:45;232.70;;;69.00;;
76336;SDS011;65157;50.082;18.178;2024-01-11T00:14:12;229.70;;;68.90;;
76336;SDS011;65157;50.082;18.178;2024-01-11T00:16:38;231.40;;;68.20;;
76336;SDS011;65157;50.082;18.178;2024-01-11T00:19:05;204.70;;;60.60;;
76336;SDS011;65157;50.082;18.178;2024-01-11T00:21:32;212.50;;;61.50;;
76336;SDS011;65157;50.082;18.178;2024-01-11T00:23:58;207.10;;;64.10;;
76336;SDS011;65157;50.082;18.178;2024-01-11T00:26:25;214.90;;;63.60;;
76336;SDS011;65157;50.082;18.178;2024-01-11T00:28:51;208.50;;;62.50;;
76336;SDS011;65157;50.082;18.178;2024-01-11T00:31:18;190.20;;;56.70;;
76336;SDS011;65157;50.082;18.178;2024-01-11T00:33:45;207.40;;;58.40;;
76336;SDS011;65157;50.082;18.178;2024-01-11T00:36:16;219.50;;;60.20;;
76336;SDS011;65157;50.082;18.178;2024-01-11T00:38:44;201.70;;;60.60;;
76336;SDS011;65157;50.082;18.178;2024-01-11T00:41:11;176.50;;;51.10;;
76336;SDS011;65157;50.082;18.178;2024-01-11T00:43:37;196.00;;;57.90;;
76336;SDS011;65157;50.082;18.178;2024-01-11T00:46:04;202.20;;;59.10;;
76336;SDS011;65157;50.082;18.178;2024-01-11T00:48:30;173.80;;;48.40;;
76336;SDS011;65157;50.082;18.178;2024-01-11T00:50:57;198.90;;;61.00;;
76336;SDS011;65157;50.082;18.178;2024-01-11T00:53:23;187.30;;;55.90;;
76336;SDS011;65157;50.082;18.178;2024-01-11T00:55:50;189.20;;;53.40;;
76336;SDS011;65157;50.082;18.178;2024-01-11T00:58:17;193.30;;;59.40;;
76336;SDS011;65157;50.082;18.178;2024-01-11T01:00:44;204.40;;;58.00;;
76336;SDS011;65157;50.082;18.178;2024-01-11T01:03:10;222.20;;;62.50;;
76336;SDS011;65157;50.082;18.178;2024-01-11T01:05:37;204.60;;;57.30;;
76336;SDS011;65157;50.082;18.178;2024-01-11T01:08:04;196.20;;;59.40;;
76336;SDS011;65157;50.082;18.178;2024-01-11T01:10:30;207.10;;;57.70;;
76336;SDS011;65157;50.082;18.178;2024-01-11T01:12:57;186.30;;;55.60;;
76336;SDS011;65157;50.082;18.178;2024-01-11T01:15:24;187.70;;;49.70;;
76336;SDS011;65157;50.082;18.178;2024-01-11T01:17:50;178.00;;;51.50;;
76336;SDS011;65157;50.082;18.178;2024-01-11T01:20:17;203.60;;;54.90;;
76336;SDS011;65157;50.082;18.178;2024-01-11T01:22:43;175.70;;;53.00;;
76336;SDS011;65157;50.082;18.178;2024-01-11T01:25:10;175.70;;;48.50;;
76336;SDS011;65157;50.082;18.178;2024-01-11T01:27:37;160.90;;;46.60;;
76336;SDS011;65157;50.082;18.178;2024-01-11T01:30:04;165.40;;;50.50;;
76336;SDS011;65157;50.082;18.178;2024-01-11T01:32:31;146.10;;;42.90;;
76336;SDS011;65157;50.082;18.178;2024-01-11T01:34:57;162.40;;;43.30;;
76336;SDS011;65157;50.082;18.178;2024-01-11T01:37:24;124.60;;;39.00;;
76336;SDS011;65157;50.082;18.178;2024-01-11T01:39:51;140.90;;;41.30;;
76336;SDS011;65157;50.082;18.178;2024-01-11T01:42:17;140.00;;;40.30;;
76336;SDS011;65157;50.082;18.178;2024-01-11T01:44:44;133.90;;;38.20;;
76336;SDS011;65157;50.082;18.178;2024-01-11T01:47:11;119.50;;;38.00;;
76336;SDS011;65157;50.082;18.178;2024-01-11T01:49:37;128.40;;;37.80;;
76336;SDS011;65157;50.082;18.178;2024-01-11T01:52:05;122.10;;;35.50;;
76336;SDS011;65157;50.082;18.178;2024-01-11T01:54:34;128.90;;;38.10;;
76336;SDS011;65157;50.082;18.178;2024-01-11T01:57:00;125.00;;;37.40;;
76336;SDS011;65157;50.082;18.178;2024-01-11T01:59:29;127.10;;;36.20;;
76336;SDS011;65157;50.082;18.178;2024-01-11T02:01:56;123.60;;;37.20;;
76336;SDS011;65157;50.082;18.178;2024-01-11T02:04:24;110.90;;;34.00;;
76336;SDS011;65157;50.082;18.178;2024-01-11T02:06:51;116.10;;;34.50;;
76336;SDS011;65157;50.082;18.178;2024-01-11T02:09:20;112.40;;;35.80;;
76336;SDS011;65157;50.082;18.178;2024-01-11T02:11:47;105.70;;;35.30;;
76336;SDS011;65157;50.082;18.178;2024-01-11T02:14:14;113.80;;;32.80;;
76336;SDS011;65157;50.082;18.178;2024-01-11T02:16:41;108.80;;;35.50;;
76336;SDS011;65157;50.082;18.178;2024-01-11T02:19:07;128.20;;;36.10;;
76336;SDS011;65157;50.082;18.178;2024-01-11T02:21:43;112.40;;;37.20;;
76336;SDS011;65157;50.082;18.178;2024-01-11T02:24:12;104.90;;;35.20;;
76336;SDS011;65157;50.082;18.178;2024-01-11T02:26:58;117.90;;;36.90;;
76336;SDS011;65157;50.082;18.178;2024-01-11T02:29:29;122.50;;;35.50;;
76336;SDS011;65157;50.082;18.178;2024-01-11T02:32:00;118.00;;;36.10;;
76336;SDS011;65157;50.082;18.178;2024-01-11T02:34:28;128.50;;;38.50;;
76336;SDS011;65157;50.082;18.178;2024-01-11T02:36:55;135.80;;;37.90;;
76336;SDS011;65157;50.082;18.178;2024-01-11T02:39:22;119.70;;;37.70;;
76336;SDS011;65157;50.082;18.178;2024-01-11T02:41:51;125.20;;;38.00;;
76336;SDS011;65157;50.082;18.178;2024-01-11T02:44:19;149.40;;;42.30;;
76336;SDS011;65157;50.082;18.178;2024-01-11T02:46:46;113.30;;;37.00;;
76336;SDS011;65157;50.082;18.178;2024-01-11T02:49:12;123.40;;;38.80;;
76336;SDS011;65157;50.082;18.178;2024-01-11T02:51:39;122.50;;;38.30;;
76336;SDS011;65157;50.082;18.178;2024-01-11T02:54:06;116.60;;;39.90;;
76336;SDS011;65157;50.082;18.178;2024-01-11T02:56:33;128.20;;;37.90;;
76336;SDS011;65157;50.082;18.178;2024-01-11T02:58:59;123.90;;;36.20;;
76336;SDS011;65157;50.082;18.178;2024-01-11T03:01:26;129.60;;;37.80;;
76336;SDS011;65157;50.082;18.178;2024-01-11T03:03:53;116.90;;;40.70;;
76336;SDS011;65157;50.082;18.178;2024-01-11T03:06:20;138.20;;;40.10;;
76336;SDS011;65157;50.082;18.178;2024-01-11T03:08:50;125.30;;;39.30;;
76336;SDS011;65157;50.082;18.178;2024-01-11T03:11:16;123.90;;;38.00;;
76336;SDS011;65157;50.082;18.178;2024-01-11T03:13:43;121.50;;;37.00;;
76336;SDS011;65157;50.082;18.178;2024-01-11T03:16:10;142.60;;;41.30;;
76336;SDS011;65157;50.082;18.178;2024-01-11T03:18:36;135.40;;;39.90;;
76336;SDS011;65157;50.082;18.178;2024-01-11T03:21:03;139.00;;;42.90;;
76336;SDS011;65157;50.082;18.178;2024-01-11T03:23:30;136.60;;;42.90;;
76336;SDS011;65157;50.082;18.178;2024-01-11T03:25:56;147.30;;;42.00;;
76336;SDS011;65157;50.082;18.178;2024-01-11T03:28:23;125.70;;;39.70;;
76336;SDS011;65157;50.082;18.178;2024-01-11T03:30:50;144.30;;;40.80;;
76336;SDS011;65157;50.082;18.178;2024-01-11T03:33:16;131.30;;;39.70;;
76336;SDS011;65157;50.082;18.178;2024-01-11T03:35:43;136.90;;;43.30;;
76336;SDS011;65157;50.082;18.178;2024-01-11T03:38:09;138.60;;;42.50;;
76336;SDS011;65157;50.082;18.178;2024-01-11T03:40:36;149.00;;;44.30;;
76336;SDS011;65157;50.082;18.178;2024-01-11T03:43:03;137.00;;;38.60;;
76336;SDS011;65157;50.082;18.178;2024-01-11T03:45:29;154.10;;;44.10;;
76336;SDS011;65157;50.082;18.178;2024-01-11T03:47:56;142.90;;;43.10;;
76336;SDS011;65157;50.082;18.178;2024-01-11T03:50:23;134.70;;;41.70;;
76336;SDS011;65157;50.082;18.178;2024-01-11T03:52:49;142.70;;;41.60;;
76336;SDS011;65157;50.082;18.178;2024-01-11T03:55:16;123.40;;;39.70;;
76336;SDS011;65157;50.082;18.178;2024-01-11T03:57:42;132.10;;;38.40;;
76336;SDS011;65157;50.082;18.178;2024-01-11T04:00:09;124.20;;;38.40;;
76336;SDS011;65157;50.082;18.178;2024-01-11T04:02:36;130.50;;;37.90;;
76336;SDS011;65157;50.082;18.178;2024-01-11T04:05:03;137.50;;;41.90;;
76336;SDS011;65157;50.082;18.178;2024-01-11T04:07:30;142.10;;;42.70;;
76336;SDS011;65157;50.082;18.178;2024-01-11T04:09:56;150.00;;;44.10;;
76336;SDS011;65157;50.082;18.178;2024-01-11T04:12:23;162.50;;;49.80;;
76336;SDS011;65157;50.082;18.178;2024-01-11T04:14:49;159.60;;;48.40;;
76336;SDS011;65157;50.082;18.178;2024-01-11T04:17:16;169.80;;;50.00;;
76336;SDS011;65157;50.082;18.178;2024-01-11T04:19:43;174.70;;;49.60;;
76336;SDS011;65157;50.082;18.178;2024-01-11T04:22:09;170.30;;;46.10;;
76336;SDS011;65157;50.082;18.178;2024-01-11T04:24:36;174.40;;;49.60;;
76336;SDS011;65157;50.082;18.178;2024-01-11T04:27:03;187.20;;;52.40;;
76336;SDS011;65157;50.082;18.178;2024-01-11T04:29:29;163.20;;;48.00;;
76336;SDS011;65157;50.082;18.178;2024-01-11T04:31:56;170.10;;;49.30;;
76336;SDS011;65157;50.082;18.178;2024-01-11T04:34:23;179.60;;;50.30;;
76336;SDS011;65157;50.082;18.178;2024-01-11T04:36:49;200.40;;;54.10;;
76336;SDS011;65157;50.082;18.178;2024-01-11T04:39:16;198.20;;;56.10;;
76336;SDS011;65157;50.082;18.178;2024-01-11T04:41:42;187.90;;;57.20;;
76336;SDS011;65157;50.082;18.178;2024-01-11T04:44:09;202.30;;;59.80;;
76336;SDS011;65157;50.082;18.178;2024-01-11T04:46:36;190.60;;;53.30;;
76336;SDS011;65157;50.082;18.178;2024-01-11T04:49:03;204.20;;;57.00;;
76336;SDS011;65157;50.082;18.178;2024-01-11T04:51:29;209.90;;;63.10;;
76336;SDS011;65157;50.082;18.178;2024-01-11T04:53:56;225.80;;;64.20;;
76336;SDS011;65157;50.082;18.178;2024-01-11T04:56:22;209.90;;;62.20;;
76336;SDS011;65157;50.082;18.178;2024-01-11T04:58:49;213.20;;;60.40;;
76336;SDS011;65157;50.082;18.178;2024-01-11T05:01:16;233.40;;;61.00;;
76336;SDS011;65157;50.082;18.178;2024-01-11T05:03:43;218.70;;;60.30;;
76336;SDS011;65157;50.082;18.178;2024-01-11T05:06:15;211.00;;;54.40;;
76336;SDS011;65157;50.082;18.178;2024-01-11T05:08:43;200.60;;;52.60;;
76336;SDS011;65157;50.082;18.178;2024-01-11T05:11:19;206.40;;;54.00;;
76336;SDS011;65157;50.082;18.178;2024-01-11T05:13:48;203.10;;;55.70;;
76336;SDS011;65157;50.082;18.178;2024-01-11T05:16:21;224.40;;;60.10;;
76336;SDS011;65157;50.082;18.178;2024-01-11T05:21:16;181.10;;;54.50;;
76336;SDS011;65157;50.082;18.178;2024-01-11T05:23:43;183.70;;;54.50;;
76336;SDS011;65157;50.082;18.178;2024-01-11T05:26:10;185.10;;;53.90;;
76336;SDS011;65157;50.082;18.178;2024-01-11T05:28:37;186.40;;;52.70;;
76336;SDS011;65157;50.082;18.178;2024-01-11T05:31:10;178.30;;;49.40;;
76336;SDS011;65157;50.082;18.178;2024-01-11T05:33:38;170.90;;;48.30;;
76336;SDS011;65157;50.082;18.178;2024-01-11T05:36:05;183.10;;;53.00;;
76336;SDS011;65157;50.082;18.178;2024-01-11T05:38:32;180.40;;;47.90;;
76336;SDS011;65157;50.082;18.178;2024-01-11T05:40:59;167.10;;;48.80;;
76336;SDS011;65157;50.082;18.178;2024-01-11T05:43:26;172.60;;;51.40;;
76336;SDS011;65157;50.082;18.178;2024-01-11T05:45:53;176.70;;;47.70;;
76336;SDS011;65157;50.082;18.178;2024-01-11T05:48:19;156.90;;;46.50;;
76336;SDS011;65157;50.082;18.178;2024-01-11T05:50:46;166.90;;;46.90;;
76336;SDS011;65157;50.082;18.178;2024-01-11T05:53:13;147.20;;;46.20;;
76336;SDS011;65157;50.082;18.178;2024-01-11T05:55:40;149.60;;;41.80;;
76336;SDS011;65157;50.082;18.178;2024-01-11T05:58:07;121.10;;;36.80;;
76336;SDS011;65157;50.082;18.178;2024-01-11T06:00:33;113.90;;;33.00;;
76336;SDS011;65157;50.082;18.178;2024-01-11T06:03:00;111.70;;;33.30;;
76336;SDS011;65157;50.082;18.178;2024-01-11T06:05:26;30.50;;;9.80;;
76336;SDS011;65157;50.082;18.178;2024-01-11T06:07:53;103.60;;;34.30;;
76336;SDS011;65157;50.082;18.178;2024-01-11T06:10:20;106.80;;;33.20;;
76336;SDS011;65157;50.082;18.178;2024-01-11T06:12:46;108.60;;;32.60;;
76336;SDS011;65157;50.082;18.178;2024-01-11T06:15:13;97.40;;;31.50;;
76336;SDS011;65157;50.082;18.178;2024-01-11T06:17:39;97.00;;;30.30;;
76336;SDS011;65157;50.082;18.178;2024-01-11T06:20:06;86.10;;;27.00;;
76336;SDS011;65157;50.082;18.178;2024-01-11T06:22:33;97.10;;;31.10;;
76336;SDS011;65157;50.082;18.178;2024-01-11T06:25:00;103.20;;;30.70;;
76336;SDS011;65157;50.082;18.178;2024-01-11T06:27:27;105.80;;;31.70;;
76336;SDS011;65157;50.082;18.178;2024-01-11T06:29:53;103.80;;;32.20;;
76336;SDS011;65157;50.082;18.178;2024-01-11T06:32:20;102.80;;;30.30;;
76336;SDS011;65157;50.082;18.178;2024-01-11T06:34:46;120.40;;;35.40;;
76336;SDS011;65157;50.082;18.178;2024-01-11T06:37:13;116.10;;;36.80;;
76336;SDS011;65157;50.082;18.178;2024-01-11T06:39:40;116.50;;;36.00;;
76336;SDS011;65157;50.082;18.178;2024-01-11T06:42:06;117.30;;;34.60;;
76336;SDS011;65157;50.082;18.178;2024-01-11T06:44:33;123.90;;;35.40;;
76336;SDS011;65157;50.082;18.178;2024-01-11T06:47:00;120.40;;;37.00;;
76336;SDS011;65157;50.082;18.178;2024-01-11T06:49:26;137.20;;;35.00;;
76336;SDS011;65157;50.082;18.178;2024-01-11T06:51:53;113.50;;;36.00;;
76336;SDS011;65157;50.082;18.178;2024-01-11T06:54:20;126.60;;;39.60;;
76336;SDS011;65157;50.082;18.178;2024-01-11T06:56:46;85.10;;;24.00;;
76336;SDS011;65157;50.082;18.178;2024-01-11T06:59:13;135.40;;;40.40;;
76336;SDS011;65157;50.082;18.178;2024-01-11T07:01:40;110.30;;;33.60;;
76336;SDS011;65157;50.082;18.178;2024-01-11T07:04:06;165.60;;;44.80;;
76336;SDS011;65157;50.082;18.178;2024-01-11T07:06:34;151.80;;;40.70;;
76336;SDS011;65157;50.082;18.178;2024-01-11T07:09:00;155.60;;;43.00;;
76336;SDS011;65157;50.082;18.178;2024-01-11T07:11:27;39.40;;;13.80;;
76336;SDS011;65157;50.082;18.178;2024-01-11T07:13:54;104.30;;;30.00;;
76336;SDS011;65157;50.082;18.178;2024-01-11T07:16:20;126.90;;;38.30;;
76336;SDS011;65157;50.082;18.178;2024-01-11T07:18:47;131.90;;;37.30;;
76336;SDS011;65157;50.082;18.178;2024-01-11T07:21:19;131.80;;;35.50;;
76336;SDS011;65157;50.082;18.178;2024-01-11T07:23:50;148.70;;;44.20;;
76336;SDS011;65157;50.082;18.178;2024-01-11T07:26:16;129.40;;;34.00;;
76336;SDS011;65157;50.082;18.178;2024-01-11T07:28:43;139.00;;;39.20;;
76336;SDS011;65157;50.082;18.178;2024-01-11T07:31:10;120.70;;;32.80;;
76336;SDS011;65157;50.082;18.178;2024-01-11T07:33:37;112.40;;;33.80;;
76336;SDS011;65157;50.082;18.178;2024-01-11T07:36:03;144.00;;;40.60;;
76336;SDS011;65157;50.082;18.178;2024-01-11T07:38:32;158.90;;;45.00;;
76336;SDS011;65157;50.082;18.178;2024-01-11T07:40:59;195.60;;;57.80;;
76336;SDS011;65157;50.082;18.178;2024-01-11T07:43:25;106.10;;;28.70;;
76336;SDS011;65157;50.082;18.178;2024-01-11T07:45:52;220.60;;;55.30;;
76336;SDS011;65157;50.082;18.178;2024-01-11T07:48:19;201.70;;;56.10;;
76336;SDS011;65157;50.082;18.178;2024-01-11T07:50:45;213.20;;;54.90;;
76336;SDS011;65157;50.082;18.178;2024-01-11T07:53:12;174.30;;;49.30;;
76336;SDS011;65157;50.082;18.178;2024-01-11T07:55:39;160.10;;;45.70;;
76336;SDS011;65157;50.082;18.178;2024-01-11T07:58:05;150.20;;;42.70;;
76336;SDS011;65157;50.082;18.178;2024-01-11T08:00:32;145.40;;;41.50;;
76336;SDS011;65157;50.082;18.178;2024-01-11T08:02:59;146.10;;;44.80;;
76336;SDS011;65157;50.082;18.178;2024-01-11T08:05:26;167.90;;;49.50;;
76336;SDS011;65157;50.082;18.178;2024-01-11T08:07:53;199.10;;;59.20;;
76336;SDS011;65157;50.082;18.178;2024-01-11T08:10:20;196.00;;;56.10;;
76336;SDS011;65157;50.082;18.178;2024-01-11T08:12:47;187.20;;;56.90;;
76336;SDS011;65157;50.082;18.178;2024-01-11T08:15:13;195.20;;;56.30;;
76336;SDS011;65157;50.082;18.178;2024-01-11T08:17:46;157.30;;;46.90;;
76336;SDS011;65157;50.082;18.178;2024-01-11T08:20:13;156.10;;;45.60;;
76336;SDS011;65157;50.082;18.178;2024-01-11T08:22:43;170.30;;;52.80;;
76336;SDS011;65157;50.082;18.178;2024-01-11T08:25:10;162.30;;;49.10;;
76336;SDS011;65157;50.082;18.178;2024-01-11T08:27:37;106.10;;;34.10;;
76336;SDS011;65157;50.082;18.178;2024-01-11T08:30:03;133.10;;;40.70;;
76336;SDS011;65157;50.082;18.178;2024-01-11T08:32:32;131.70;;;39.90;;
76336;SDS011;65157;50.082;18.178;2024-01-11T08:34:58;106.30;;;34.60;;
76336;SDS011;65157;50.082;18.178;2024-01-11T08:37:25;117.20;;;36.30;;
76336;SDS011;65157;50.082;18.178;2024-01-11T08:39:52;94.10;;;27.30;;
76336;SDS011;65157;50.082;18.178;2024-01-11T08:42:18;135.30;;;38.40;;
76336;SDS011;65157;50.082;18.178;2024-01-11T08:44:45;110.00;;;34.10;;
76336;SDS011;65157;50.082;18.178;2024-01-11T08:47:11;136.30;;;37.70;;
76336;SDS011;65157;50.082;18.178;2024-01-11T08:49:38;150.30;;;45.70;;
76336;SDS011;65157;50.082;18.178;2024-01-11T08:52:05;93.50;;;29.70;;
76336;SDS011;65157;50.082;18.178;2024-01-11T08:54:32;103.40;;;31.60;;
76336;SDS011;65157;50.082;18.178;2024-01-11T08:56:59;78.00;;;22.00;;
76336;SDS011;65157;50.082;18.178;2024-01-11T08:59:27;87.40;;;29.20;;
76336;SDS011;65157;50.082;18.178;2024-01-11T09:01:53;89.50;;;30.60;;
76336;SDS011;65157;50.082;18.178;2024-01-11T09:04:20;93.50;;;28.50;;
76336;SDS011;65157;50.082;18.178;2024-01-11T09:06:47;99.00;;;30.00;;
76336;SDS011;65157;50.082;18.178;2024-01-11T09:09:13;68.40;;;21.90;;
76336;SDS011;65157;50.082;18.178;2024-01-11T09:11:40;88.80;;;28.30;;
76336;SDS011;65157;50.082;18.178;2024-01-11T09:14:07;75.50;;;27.00;;
76336;SDS011;65157;50.082;18.178;2024-01-11T09:16:34;81.20;;;27.30;;
76336;SDS011;65157;50.082;18.178;2024-01-11T09:19:00;83.70;;;28.70;;
76336;SDS011;65157;50.082;18.178;2024-01-11T09:21:27;87.30;;;27.00;;
76336;SDS011;65157;50.082;18.178;2024-01-11T09:23:54;90.20;;;28.10;;
76336;SDS011;65157;50.082;18.178;2024-01-11T09:26:20;94.50;;;29.50;;
76336;SDS011;65157;50.082;18.178;2024-01-11T09:28:47;101.50;;;31.10;;
76336;SDS011;65157;50.082;18.178;2024-01-11T09:31:13;110.40;;;36.00;;
76336;SDS011;65157;50.082;18.178;2024-01-11T09:33:40;99.80;;;29.80;;
76336;SDS011;65157;50.082;18.178;2024-01-11T09:36:07;90.30;;;29.30;;
76336;SDS011;65157;50.082;18.178;2024-01-11T09:38:34;89.90;;;31.50;;
76336;SDS011;65157;50.082;18.178;2024-01-11T09:41:07;82.30;;;30.20;;
76336;SDS011;65157;50.082;18.178;2024-01-11T09:43:38;85.30;;;30.00;;
76336;SDS011;65157;50.082;18.178;2024-01-11T09:46:07;82.70;;;29.50;;
76336;SDS011;65157;50.082;18.178;2024-01-11T09:48:36;80.90;;;27.40;;
76336;SDS011;65157;50.082;18.178;2024-01-11T09:51:08;80.30;;;29.30;;
76336;SDS011;65157;50.082;18.178;2024-01-11T09:53:37;76.30;;;29.20;;
76336;SDS011;65157;50.082;18.178;2024-01-11T09:56:08;82.00;;;29.80;;
76336;SDS011;65157;50.082;18.178;2024-01-11T09:58:35;80.50;;;29.10;;
76336;SDS011;65157;50.082;18.178;2024-01-11T10:01:03;79.40;;;28.90;;
76336;SDS011;65157;50.082;18.178;2024-01-11T10:03:35;85.90;;;30.30;;
76336;SDS011;65157;50.082;18.178;2024-01-11T10:06:02;82.20;;;28.30;;
76336;SDS011;65157;50.082;18.178;2024-01-11T10:08:30;83.20;;;27.70;;
76336;SDS011;65157;50.082;18.178;2024-01-11T10:10:58;65.70;;;23.70;;
76336;SDS011;65157;50.082;18.178;2024-01-11T10:13:26;75.50;;;27.50;;
76336;SDS011;65157;50.082;18.178;2024-01-11T10:18:33;61.90;;;23.50;;
76336;SDS011;65157;50.082;18.178;2024-01-11T10:21:00;58.00;;;22.30;;
76336;SDS011;65157;50.082;18.178;2024-01-11T10:23:27;47.10;;;16.00;;
76336;SDS011;65157;50.082;18.178;2024-01-11T10:25:56;67.40;;;21.90;;
76336;SDS011;65157;50.082;18.178;2024-01-11T10:28:24;68.10;;;24.50;;
76336;SDS011;65157;50.082;18.178;2024-01-11T10:30:52;72.30;;;25.80;;
76336;SDS011;65157;50.082;18.178;2024-01-11T10:33:19;77.50;;;28.80;;
76336;SDS011;65157;50.082;18.178;2024-01-11T10:35:46;77.00;;;27.30;;
76336;SDS011;65157;50.082;18.178;2024-01-11T10:38:14;90.30;;;30.30;;
76336;SDS011;65157;50.082;18.178;2024-01-11T10:40:41;85.00;;;30.50;;
76336;SDS011;65157;50.082;18.178;2024-01-11T10:43:10;79.00;;;29.70;;
76336;SDS011;65157;50.082;18.178;2024-01-11T10:45:37;81.20;;;29.80;;
76336;SDS011;65157;50.082;18.178;2024-01-11T10:48:06;84.60;;;28.80;;
76336;SDS011;65157;50.082;18.178;2024-01-11T10:50:36;65.30;;;24.60;;
76336;SDS011;65157;50.082;18.178;2024-01-11T10:53:12;57.10;;;21.20;;
76336;SDS011;65157;50.082;18.178;2024-01-11T10:55:47;55.30;;;21.50;;
76336;SDS011;65157;50.082;18.178;2024-01-11T10:58:16;69.90;;;24.80;;
76336;SDS011;65157;50.082;18.178;2024-01-11T11:00:44;73.30;;;26.10;;
76336;SDS011;65157;50.082;18.178;2024-01-11T11:03:11;85.20;;;30.60;;
76336;SDS011;65157;50.082;18.178;2024-01-11T11:05:40;84.80;;;32.60;;
76336;SDS011;65157;50.082;18.178;2024-01-11T11:08:09;89.60;;;30.70;;
76336;SDS011;65157;50.082;18.178;2024-01-11T11:10:36;85.50;;;28.80;;
76336;SDS011;65157;50.082;18.178;2024-01-11T11:13:05;85.70;;;32.00;;
76336;SDS011;65157;50.082;18.178;2024-01-11T11:15:32;82.90;;;30.10;;
76336;SDS011;65157;50.082;18.178;2024-01-11T11:18:01;80.90;;;30.80;;
76336;SDS011;65157;50.082;18.178;2024-01-11T11:20:28;87.50;;;31.10;;
76336;SDS011;65157;50.082;18.178;2024-01-11T11:23:08;88.80;;;32.90;;
76336;SDS011;65157;50.082;18.178;2024-01-11T11:25:36;90.80;;;31.00;;
76336;SDS011;65157;50.082;18.178;2024-01-11T11:28:03;77.20;;;26.70;;
76336;SDS011;65157;50.082;18.178;2024-01-11T11:30:31;75.30;;;29.40;;
76336;SDS011;65157;50.082;18.178;2024-01-11T11:32:58;80.00;;;30.10;;
76336;SDS011;65157;50.082;18.178;2024-01-11T11:35:34;76.70;;;27.90;;
76336;SDS011;65157;50.082;18.178;2024-01-11T11:38:01;76.50;;;26.50;;
76336;SDS011;65157;50.082;18.178;2024-01-11T11:40:37;75.20;;;27.90;;
76336;SDS011;65157;50.082;18.178;2024-01-11T11:43:06;69.80;;;27.90;;
76336;SDS011;65157;50.082;18.178;2024-01-11T11:45:32;69.80;;;26.30;;
76336;SDS011;65157;50.082;18.178;2024-01-11T11:47:59;73.60;;;27.90;;
76336;SDS011;65157;50.082;18.178;2024-01-11T11:50:26;69.80;;;27.80;;
76336;SDS011;65157;50.082;18.178;2024-01-11T11:52:53;63.30;;;27.80;;
76336;SDS011;65157;50.082;18.178;2024-01-11T11:55:22;68.30;;;27.20;;
76336;SDS011;65157;50.082;18.178;2024-01-11T11:57:52;63.00;;;26.20;;
76336;SDS011;65157;50.082;18.178;2024-01-11T12:00:22;60.30;;;22.90;;
76336;SDS011;65157;50.082;18.178;2024-01-11T12:02:49;67.80;;;26.30;;
76336;SDS011;65157;50.082;18.178;2024-01-11T12:05:17;61.80;;;23.70;;
76336;SDS011;65157;50.082;18.178;2024-01-11T12:07:44;64.90;;;22.80;;
76336;SDS011;65157;50.082;18.178;2024-01-11T12:10:11;72.70;;;25.60;;
76336;SDS011;65157;50.082;18.178;2024-01-11T12:12:38;61.10;;;24.60;;
76336;SDS011;65157;50.082;18.178;2024-01-11T12:15:05;58.30;;;22.30;;
76336;SDS011;65157;50.082;18.178;2024-01-11T12:17:32;59.40;;;22.60;;
76336;SDS011;65157;50.082;18.178;2024-01-11T12:19:59;60.40;;;23.90;;
76336;SDS011;65157;50.082;18.178;2024-01-11T12:22:26;52.50;;;21.70;;
76336;SDS011;65157;50.082;18.178;2024-01-11T12:24:52;60.30;;;23.70;;
76336;SDS011;65157;50.082;18.178;2024-01-11T12:27:19;56.40;;;24.30;;
76336;SDS011;65157;50.082;18.178;2024-01-11T12:29:46;58.50;;;24.40;;
76336;SDS011;65157;50.082;18.178;2024-01-11T12:32:15;53.10;;;22.40;;
76336;SDS011;65157;50.082;18.178;2024-01-11T12:34:43;54.00;;;21.90;;
76336;SDS011;65157;50.082;18.178;2024-01-11T12:37:10;53.40;;;20.90;;
76336;SDS011;65157;50.082;18.178;2024-01-11T12:39:37;49.00;;;20.90;;
76336;SDS011;65157;50.082;18.178;2024-01-11T12:42:04;51.50;;;20.00;;
76336;SDS011;65157;50.082;18.178;2024-01-11T12:44:31;49.30;;;19.30;;
76336;SDS011;65157;50.082;18.178;2024-01-11T12:47:00;49.40;;;19.60;;
76336;SDS011;65157;50.082;18.178;2024-01-11T12:49:28;47.70;;;20.30;;
76336;SDS011;65157;50.082;18.178;2024-01-11T12:51:55;47.10;;;21.00;;
76336;SDS011;65157;50.082;18.178;2024-01-11T12:54:21;48.40;;;19.80;;
76336;SDS011;65157;50.082;18.178;2024-01-11T12:56:48;49.70;;;20.10;;
76336;SDS011;65157;50.082;18.178;2024-01-11T12:59:14;50.80;;;20.30;;
76336;SDS011;65157;50.082;18.178;2024-01-11T13:01:41;48.20;;;21.20;;
76336;SDS011;65157;50.082;18.178;2024-01-11T13:04:09;49.30;;;20.90;;
76336;SDS011;65157;50.082;18.178;2024-01-11T13:09:02;46.30;;;18.10;;
76336;SDS011;65157;50.082;18.178;2024-01-11T13:11:29;53.20;;;21.70;;
76336;SDS011;65157;50.082;18.178;2024-01-11T13:13:56;49.80;;;23.30;;
76336;SDS011;65157;50.082;18.178;2024-01-11T13:18:50;48.20;;;22.40;;
76336;SDS011;65157;50.082;18.178;2024-01-11T13:21:17;47.30;;;22.00;;
76336;SDS011;65157;50.082;18.178;2024-01-11T13:23:44;52.00;;;22.90;;
76336;SDS011;65157;50.082;18.178;2024-01-11T13:26:10;59.10;;;22.60;;
76336;SDS011;65157;50.082;18.178;2024-01-11T13:28:37;48.20;;;20.40;;
76336;SDS011;65157;50.082;18.178;2024-01-11T13:31:04;51.20;;;20.60;;
76336;SDS011;65157;50.082;18.178;2024-01-11T13:33:30;48.00;;;19.80;;
76336;SDS011;65157;50.082;18.178;2024-01-11T13:35:57;51.20;;;21.60;;
76336;SDS011;65157;50.082;18.178;2024-01-11T13:38:23;58.60;;;23.50;;
76336;SDS011;65157;50.082;18.178;2024-01-11T13:40:51;47.60;;;20.70;;
76336;SDS011;65157;50.082;18.178;2024-01-11T13:43:18;53.40;;;21.50;;
76336;SDS011;65157;50.082;18.178;2024-01-11T13:45:44;64.80;;;26.30;;
76336;SDS011;65157;50.082;18.178;2024-01-11T13:48:11;65.50;;;26.00;;
76336;SDS011;65157;50.082;18.178;2024-01-11T13:50:38;66.30;;;27.10;;
76336;SDS011;65157;50.082;18.178;2024-01-11T13:53:04;63.90;;;25.50;;
76336;SDS011;65157;50.082;18.178;2024-01-11T13:55:32;65.50;;;25.60;;
76336;SDS011;65157;50.082;18.178;2024-01-11T13:57:59;63.50;;;26.30;;
76336;SDS011;65157;50.082;18.178;2024-01-11T14:00:25;68.80;;;28.00;;
76336;SDS011;65157;50.082;18.178;2024-01-11T14:02:53;60.40;;;25.90;;
76336;SDS011;65157;50.082;18.178;2024-01-11T14:05:19;73.40;;;30.30;;
76336;SDS011;65157;50.082;18.178;2024-01-11T14:07:46;72.70;;;27.00;;
76336;SDS011;65157;50.082;18.178;2024-01-11T14:10:13;70.00;;;27.10;;
76336;SDS011;65157;50.082;18.178;2024-01-11T14:12:41;76.60;;;29.70;;